createdAt,value
2019-02-21T00:00:50.035Z,8.50
2019-02-21T00:03:19.714Z,8.50
2019-02-21T00:05:49.379Z,8.50
2019-02-21T00:08:19.128Z,8.50
2019-02-21T00:10:49.555Z,8.50
2019-02-21T00:13:19.264Z,8.50
2019-02-21T00:15:49.026Z,8.50
2019-02-21T00:18:19.033Z,8.40
2019-02-21T00:20:48.635Z,8.40
2019-02-21T00:23:18.326Z,8.40
2019-02-21T00:25:48.017Z,8.40
2019-02-21T00:28:18.897Z,8.40
2019-02-21T00:30:48.669Z,8.40
2019-02-21T00:33:20.087Z,8.30
2019-02-21T00:35:49.613Z,8.40
2019-02-21T00:38:19.235Z,8.30
2019-02-21T00:40:48.912Z,8.40
2019-02-21T00:43:18.855Z,8.40
2019-02-21T00:45:48.518Z,8.40
2019-02-21T00:48:18.132Z,8.40
2019-02-21T00:50:47.871Z,8.40
2019-02-21T00:53:17.554Z,8.40
2019-02-21T00:55:47.199Z,8.40
2019-02-21T00:58:16.974Z,8.40
2019-02-21T01:00:47.011Z,8.30
2019-02-21T01:03:16.783Z,8.40
2019-02-21T01:05:46.596Z,8.40
2019-02-21T01:08:16.230Z,8.50
2019-02-21T01:10:45.990Z,8.40
2019-02-21T01:13:16.178Z,8.40
2019-02-21T01:15:45.850Z,8.40
2019-02-21T01:18:15.890Z,8.50
2019-02-21T01:20:45.552Z,8.40
2019-02-21T01:23:15.570Z,8.40
2019-02-21T01:25:45.201Z,8.40
2019-02-21T01:28:14.812Z,8.40
2019-02-21T01:30:44.455Z,8.30
2019-02-21T01:33:14.083Z,8.30
2019-02-21T01:35:44.211Z,8.40
2019-02-21T01:38:14.231Z,8.40
2019-02-21T01:40:43.961Z,8.30
2019-02-21T01:43:13.631Z,8.40
2019-02-21T01:45:43.279Z,8.30
2019-02-21T01:48:12.991Z,8.30
2019-02-21T01:50:47.039Z,8.30
2019-02-21T01:53:17.095Z,8.30
2019-02-21T01:55:46.885Z,8.30
2019-02-21T01:58:16.547Z,8.30
2019-02-21T02:00:46.197Z,8.30
2019-02-21T02:03:16.118Z,8.20
2019-02-21T02:05:46.111Z,8.30
2019-02-21T02:08:16.228Z,8.30
2019-02-21T02:10:45.886Z,8.30
2019-02-21T02:13:24.024Z,8.30
2019-02-21T02:15:46.818Z,8.30
2019-02-21T02:18:16.835Z,8.30
2019-02-21T02:20:46.925Z,8.20
2019-02-21T02:23:16.549Z,8.20
2019-02-21T02:25:46.314Z,8.30
2019-02-21T02:28:16.461Z,8.30
2019-02-21T02:30:46.215Z,8.30
2019-02-21T02:33:15.863Z,8.30
2019-02-21T02:35:45.557Z,8.30
2019-02-21T02:38:15.184Z,8.30
2019-02-21T02:40:44.812Z,8.30
2019-02-21T02:43:14.756Z,8.30
2019-02-21T02:45:45.961Z,8.30
2019-02-21T02:48:15.538Z,8.30
2019-02-21T02:50:45.469Z,8.30
2019-02-21T02:53:15.144Z,8.30
2019-02-21T02:55:44.878Z,8.30
2019-02-21T02:58:14.650Z,8.30
2019-02-21T03:00:44.291Z,8.30
2019-02-21T03:03:32.976Z,8.30
2019-02-21T03:06:02.678Z,8.20
2019-02-21T03:08:32.687Z,8.20
2019-02-21T03:11:03.007Z,8.20
2019-02-21T03:13:32.616Z,8.20
2019-02-21T03:16:02.491Z,8.20
2019-02-21T03:18:32.319Z,8.20
2019-02-21T03:21:02.031Z,8.10
2019-02-21T03:23:31.939Z,8.10
2019-02-21T03:26:01.609Z,8.20
2019-02-21T03:28:31.822Z,8.10
2019-02-21T03:31:01.601Z,8.20
2019-02-21T03:33:31.247Z,8.10
2019-02-21T03:36:01.067Z,8.10
2019-02-21T03:38:34.926Z,8.10
2019-02-21T03:41:03.061Z,8.10
2019-02-21T03:43:33.100Z,8.20
2019-02-21T03:46:02.705Z,8.20
2019-02-21T03:48:32.351Z,8.10
2019-02-21T03:51:02.276Z,8.10
2019-02-21T03:53:32.146Z,8.10
2019-02-21T03:56:01.770Z,8.10
2019-02-21T03:58:31.907Z,8.10
2019-02-21T04:01:01.729Z,8.10
2019-02-21T04:03:31.368Z,8.10
2019-02-21T04:06:01.128Z,8.10
2019-02-21T04:08:31.259Z,8.10
2019-02-21T04:11:01.538Z,8.00
2019-02-21T04:13:31.453Z,8.00
2019-02-21T04:16:01.099Z,8.00
2019-02-21T04:18:30.803Z,8.00
2019-02-21T04:21:00.489Z,8.00
2019-02-21T04:23:30.648Z,8.00
2019-02-21T04:26:00.308Z,8.00
2019-02-21T04:28:29.963Z,8.00
2019-02-21T04:30:59.978Z,8.00
2019-02-21T04:33:29.742Z,7.90
2019-02-21T04:35:59.395Z,7.90
2019-02-21T04:38:29.374Z,7.90
2019-02-21T04:40:59.373Z,7.90
2019-02-21T04:43:29.350Z,7.90
2019-02-21T04:45:59.091Z,7.90
2019-02-21T04:48:28.874Z,7.80
2019-02-21T04:50:58.524Z,7.90
2019-02-21T04:53:28.551Z,7.90
2019-02-21T04:55:58.660Z,7.80
2019-02-21T04:58:28.369Z,7.70
2019-02-21T05:00:57.939Z,7.70
2019-02-21T05:03:27.608Z,7.80
2019-02-21T05:05:57.416Z,7.70
2019-02-21T05:08:27.318Z,7.80
2019-02-21T05:10:56.991Z,7.80
2019-02-21T05:13:27.117Z,7.70
2019-02-21T05:15:56.741Z,7.80
2019-02-21T05:18:26.426Z,7.70
2019-02-21T05:20:56.014Z,7.80
2019-02-21T05:23:25.754Z,7.80
2019-02-21T05:25:55.706Z,7.80
2019-02-21T05:28:32.657Z,7.80
2019-02-21T05:31:12.563Z,7.80
2019-02-21T05:34:05.535Z,7.80
2019-02-21T05:36:44.314Z,7.80
2019-02-21T05:39:42.402Z,7.80
2019-02-21T05:42:22.706Z,7.90
2019-02-21T05:45:11.519Z,7.80
2019-02-21T05:48:01.123Z,7.80
2019-02-21T05:50:34.845Z,7.80
2019-02-21T05:53:28.665Z,7.80
2019-02-21T05:56:20.066Z,7.90
2019-02-21T05:59:09.735Z,8.00
2019-02-21T06:01:58.275Z,8.00
2019-02-21T06:04:38.461Z,7.80
2019-02-21T06:07:27.376Z,7.60
2019-02-21T06:10:15.257Z,7.70
2019-02-21T06:13:04.179Z,7.60
2019-02-21T06:15:43.376Z,7.60
2019-02-21T06:18:36.047Z,7.60
2019-02-21T06:21:29.202Z,7.50
2019-02-21T06:24:21.001Z,7.50
2019-02-21T06:27:12.086Z,7.40
2019-02-21T06:29:45.601Z,7.40
2019-02-21T06:32:15.618Z,7.30
2019-02-21T06:34:45.543Z,7.20
2019-02-21T06:37:52.353Z,7.20
2019-02-21T06:40:24.831Z,7.20
2019-02-21T06:42:54.643Z,7.20
2019-02-21T06:45:24.363Z,7.20
2019-02-21T06:47:53.961Z,7.10
2019-02-21T06:50:26.753Z,7.10
2019-02-21T06:52:55.600Z,7.20
2019-02-21T06:55:25.359Z,7.20
2019-02-21T06:57:55.008Z,7.10
2019-02-21T07:00:24.620Z,7.10
2019-02-21T07:02:54.634Z,7.10
2019-02-21T07:05:24.934Z,7.20
2019-02-21T07:07:54.595Z,7.20
2019-02-21T07:10:24.264Z,7.30
2019-02-21T07:12:54.212Z,7.30
2019-02-21T07:15:23.845Z,7.30
2019-02-21T07:17:53.588Z,7.30
2019-02-21T07:20:23.138Z,7.40
2019-02-21T07:22:53.164Z,7.20
2019-02-21T07:25:41.697Z,7.40
2019-02-21T07:28:14.928Z,7.40
2019-02-21T07:30:43.070Z,7.40
2019-02-21T07:33:12.799Z,7.40
2019-02-21T07:35:42.513Z,7.40
2019-02-21T07:38:12.677Z,7.40
2019-02-21T07:40:42.322Z,7.40
2019-02-21T07:43:13.005Z,7.50
2019-02-21T07:45:42.685Z,7.60
2019-02-21T07:48:12.686Z,7.60
2019-02-21T07:50:43.179Z,7.70
2019-02-21T07:53:12.772Z,7.70
2019-02-21T07:55:42.452Z,7.70
2019-02-21T07:58:12.101Z,7.80
2019-02-21T08:00:41.887Z,7.70
2019-02-21T08:03:11.584Z,7.80
2019-02-21T08:05:41.306Z,7.80
2019-02-21T08:08:11.172Z,7.80
2019-02-21T08:10:40.858Z,7.90
2019-02-21T08:13:10.444Z,7.90
2019-02-21T08:15:40.180Z,7.90
2019-02-21T08:18:09.826Z,7.90
2019-02-21T08:20:41.060Z,7.90
2019-02-21T08:23:11.139Z,7.90
2019-02-21T08:25:40.754Z,7.90
2019-02-21T08:28:10.534Z,8.00
2019-02-21T08:30:40.538Z,8.00
2019-02-21T08:33:41.093Z,7.90
2019-02-21T08:36:10.794Z,8.00
2019-02-21T08:38:40.364Z,8.10
2019-02-21T08:41:10.175Z,8.10
2019-02-21T08:43:40.143Z,8.10
2019-02-21T08:46:09.777Z,8.20
2019-02-21T08:48:40.532Z,8.10
2019-02-21T08:51:10.390Z,8.20
2019-02-21T08:53:40.146Z,8.20
2019-02-21T08:56:10.000Z,8.20
2019-02-21T08:58:39.704Z,8.30
2019-02-21T09:01:09.552Z,8.40
2019-02-21T09:03:39.672Z,8.50
2019-02-21T09:06:09.496Z,8.40
2019-02-21T09:08:39.173Z,8.50
2019-02-21T09:11:08.861Z,8.60
2019-02-21T09:13:38.469Z,8.50
2019-02-21T09:16:08.101Z,8.50
2019-02-21T09:18:37.913Z,8.70
2019-02-21T09:21:07.498Z,8.80
2019-02-21T09:23:37.062Z,8.80
2019-02-21T09:26:06.781Z,8.90
2019-02-21T09:28:36.496Z,8.90
2019-02-21T09:31:06.515Z,9.00
2019-02-21T09:33:37.267Z,9.00
2019-02-21T09:36:07.227Z,9.10
2019-02-21T09:38:36.851Z,9.20
2019-02-21T09:41:06.634Z,9.40
2019-02-21T09:43:36.342Z,9.50
2019-02-21T09:46:06.091Z,9.60
2019-02-21T09:48:35.734Z,9.60
2019-02-21T09:51:05.633Z,9.70
2019-02-21T09:53:35.418Z,9.80
2019-02-21T09:56:05.349Z,10.00
2019-02-21T09:58:35.154Z,9.90
2019-02-21T10:01:05.016Z,10.20
2019-02-21T10:03:35.123Z,10.30
2019-02-21T10:06:05.406Z,10.20
2019-02-21T10:08:36.619Z,10.30
2019-02-21T10:11:06.563Z,10.50
2019-02-21T10:13:55.329Z,10.60
2019-02-21T10:16:26.163Z,10.80
2019-02-21T10:18:55.822Z,10.90
2019-02-21T10:21:25.629Z,10.70
2019-02-21T10:23:56.694Z,10.70
2019-02-21T10:26:26.632Z,10.90
2019-02-21T10:28:56.267Z,11.20
2019-02-21T10:31:25.914Z,11.30
2019-02-21T10:33:55.600Z,11.30
2019-02-21T10:36:25.242Z,11.10
2019-02-21T10:38:54.867Z,11.50
2019-02-21T10:41:24.579Z,11.70
2019-02-21T10:43:54.345Z,11.70
2019-02-21T10:46:24.116Z,11.70
2019-02-21T10:48:54.008Z,11.80
2019-02-21T10:51:23.629Z,11.40
2019-02-21T10:53:53.431Z,11.50
2019-02-21T10:56:23.126Z,11.50
2019-02-21T10:58:53.167Z,11.90
2019-02-21T11:01:22.854Z,12.10
2019-02-21T11:03:52.507Z,11.70
2019-02-21T11:06:22.246Z,12.00
2019-02-21T11:08:52.131Z,12.00
2019-02-21T11:11:21.789Z,12.40
2019-02-21T11:13:51.411Z,12.60
2019-02-21T11:16:22.450Z,12.40
2019-02-21T11:18:52.080Z,12.60
2019-02-21T11:21:21.846Z,12.70
2019-02-21T11:23:51.603Z,12.90
2019-02-21T11:26:21.284Z,13.00
2019-02-21T11:28:51.377Z,12.60
2019-02-21T11:31:21.064Z,12.60
2019-02-21T11:33:51.066Z,12.30
2019-02-21T11:36:20.683Z,12.70
2019-02-21T11:38:50.414Z,12.70
2019-02-21T11:41:20.683Z,13.00
2019-02-21T11:43:50.416Z,12.50
2019-02-21T11:46:20.249Z,12.90
2019-02-21T11:48:50.277Z,13.10
2019-02-21T11:51:19.946Z,13.30
2019-02-21T11:53:50.330Z,12.90
2019-02-21T11:56:19.997Z,13.10
2019-02-21T11:58:50.789Z,13.30
2019-02-21T12:01:21.145Z,13.40
2019-02-21T12:03:50.943Z,13.40
2019-02-21T12:06:20.653Z,12.90
2019-02-21T12:08:50.556Z,12.70
2019-02-21T12:11:20.184Z,12.60
2019-02-21T12:13:51.075Z,12.60
2019-02-21T12:16:20.643Z,12.60
2019-02-21T12:18:50.336Z,12.20
2019-02-21T12:21:19.919Z,12.10
2019-02-21T12:23:49.711Z,11.90
2019-02-21T12:26:19.323Z,12.70
2019-02-21T12:28:49.530Z,12.10
2019-02-21T12:31:19.096Z,12.80
2019-02-21T12:33:48.822Z,11.80
2019-02-21T12:36:18.588Z,12.70
2019-02-21T12:38:48.260Z,12.00
2019-02-21T12:41:18.116Z,12.60
2019-02-21T12:43:47.818Z,12.50
2019-02-21T12:46:17.480Z,12.90
2019-02-21T12:48:47.045Z,12.10
2019-02-21T12:51:16.695Z,12.70
2019-02-21T12:53:46.696Z,12.40
2019-02-21T12:56:16.337Z,13.00
2019-02-21T12:58:46.183Z,13.20
2019-02-21T13:01:15.835Z,13.20
2019-02-21T13:03:45.561Z,13.30
2019-02-21T13:06:15.208Z,13.10
2019-02-21T13:08:44.819Z,13.20
2019-02-21T13:11:14.542Z,13.10
2019-02-21T13:13:44.258Z,12.70
2019-02-21T13:16:13.999Z,13.10
2019-02-21T13:18:43.596Z,12.80
2019-02-21T13:21:13.186Z,12.20
2019-02-21T13:23:43.102Z,12.70
2019-02-21T13:26:12.824Z,12.50
2019-02-21T13:28:42.629Z,12.80
2019-02-21T13:31:12.607Z,12.80
2019-02-21T13:33:42.790Z,12.40
2019-02-21T13:36:13.145Z,12.40
2019-02-21T13:38:42.944Z,12.50
2019-02-21T13:41:13.045Z,12.50
2019-02-21T13:43:42.995Z,12.60
2019-02-21T13:46:12.999Z,12.20
2019-02-21T13:48:42.690Z,12.00
2019-02-21T13:51:13.072Z,12.20
2019-02-21T13:53:42.936Z,11.70
2019-02-21T13:56:12.770Z,12.40
2019-02-21T13:58:42.467Z,12.10
2019-02-21T14:01:14.552Z,12.50
2019-02-21T14:03:43.821Z,12.50
2019-02-21T14:06:13.393Z,12.30
2019-02-21T14:08:43.190Z,12.00
2019-02-21T14:11:13.243Z,12.30
2019-02-21T14:13:42.918Z,12.40
2019-02-21T14:16:12.905Z,12.30
2019-02-21T14:18:42.594Z,12.40
2019-02-21T14:21:12.338Z,11.90
2019-02-21T14:23:41.943Z,12.20
2019-02-21T14:26:11.626Z,12.00
2019-02-21T14:28:41.313Z,12.00
2019-02-21T14:31:11.079Z,12.00
2019-02-21T14:33:40.946Z,11.80
2019-02-21T14:36:15.528Z,11.10
2019-02-21T14:38:42.102Z,10.90
2019-02-21T14:41:11.779Z,11.20
2019-02-21T14:43:41.474Z,11.70
2019-02-21T14:46:11.195Z,11.50
2019-02-21T14:48:40.923Z,11.40
2019-02-21T14:51:11.819Z,11.40
2019-02-21T14:53:41.662Z,11.70
2019-02-21T14:56:11.538Z,11.50
2019-02-21T14:58:41.644Z,11.30
2019-02-21T15:01:11.499Z,11.40
2019-02-21T15:03:41.350Z,11.10
2019-02-21T15:06:11.346Z,11.40
2019-02-21T15:08:41.057Z,11.60
2019-02-21T15:11:10.719Z,10.80
2019-02-21T15:13:40.456Z,11.30
2019-02-21T15:16:10.134Z,11.10
2019-02-21T15:18:39.855Z,11.20
2019-02-21T15:21:09.967Z,11.10
2019-02-21T15:23:40.051Z,10.60
2019-02-21T15:26:09.678Z,11.10
2019-02-21T15:28:39.314Z,11.30
2019-02-21T15:31:08.927Z,11.00
2019-02-21T15:33:39.310Z,11.00
2019-02-21T15:36:08.986Z,10.60
2019-02-21T15:38:39.101Z,11.00
2019-02-21T15:41:08.771Z,10.50
2019-02-21T15:43:38.617Z,10.60
2019-02-21T15:46:08.197Z,10.30
2019-02-21T15:48:38.293Z,10.80
2019-02-21T15:51:07.963Z,10.40
2019-02-21T15:53:37.647Z,10.10
2019-02-21T15:56:07.594Z,9.90
2019-02-21T15:58:37.396Z,10.10
2019-02-21T16:01:07.090Z,10.40
2019-02-21T16:03:37.015Z,10.20
2019-02-21T16:06:06.702Z,10.50
2019-02-21T16:08:36.383Z,10.30
2019-02-21T16:11:06.279Z,10.40
2019-02-21T16:13:36.392Z,10.20
2019-02-21T16:16:06.533Z,10.20
2019-02-21T16:18:36.209Z,10.20
2019-02-21T16:21:05.940Z,10.50
2019-02-21T16:23:35.962Z,10.50
2019-02-21T16:26:05.787Z,10.40
2019-02-21T16:28:35.882Z,10.30
2019-02-21T16:31:05.661Z,10.20
2019-02-21T16:33:35.319Z,10.30
2019-02-21T16:36:05.055Z,10.50
2019-02-21T16:38:34.758Z,10.50
2019-02-21T16:41:04.776Z,10.60
2019-02-21T16:43:34.677Z,9.80
2019-02-21T16:46:08.097Z,9.80
2019-02-21T16:48:37.083Z,10.00
2019-02-21T16:51:07.290Z,10.20
2019-02-21T16:53:36.913Z,10.00
2019-02-21T16:56:06.647Z,10.00
2019-02-21T16:58:36.427Z,9.70
2019-02-21T17:01:06.860Z,10.10
2019-02-21T17:03:37.398Z,9.90
2019-02-21T17:06:08.172Z,10.00
2019-02-21T17:08:38.209Z,9.80
2019-02-21T17:11:08.144Z,9.30
2019-02-21T17:13:37.891Z,9.80
2019-02-21T17:16:07.895Z,9.70
2019-02-21T17:18:37.705Z,9.90
2019-02-21T17:21:07.323Z,9.90
2019-02-21T17:23:36.965Z,9.80
2019-02-21T17:26:06.676Z,9.70
2019-02-21T17:28:36.269Z,9.50
2019-02-21T17:31:06.586Z,9.60
2019-02-21T17:33:36.416Z,9.60
2019-02-21T17:36:06.165Z,9.50
2019-02-21T17:38:36.171Z,9.70
2019-02-21T17:41:06.449Z,9.80
2019-02-21T17:43:38.716Z,9.80
2019-02-21T17:46:08.359Z,9.50
2019-02-21T17:48:38.034Z,9.70
2019-02-21T17:54:54.201Z,9.50
2019-02-21T17:57:24.012Z,9.70
2019-02-21T17:59:53.777Z,9.80
2019-02-21T18:02:23.620Z,9.70
2019-02-21T18:04:53.325Z,9.90
2019-02-21T18:07:24.475Z,9.30
2019-02-21T18:09:55.429Z,9.70
2019-02-21T18:12:25.083Z,9.70
2019-02-21T18:14:54.730Z,9.70
2019-02-21T18:17:26.562Z,9.80
2019-02-21T18:19:56.364Z,9.80
2019-02-21T18:22:26.149Z,9.60
2019-02-21T18:24:57.045Z,9.50
2019-02-21T18:27:29.485Z,9.50
2019-02-21T18:30:01.098Z,9.80
2019-02-21T18:32:30.999Z,9.40
2019-02-21T18:35:01.833Z,9.70
2019-02-21T18:37:34.187Z,9.50
2019-02-21T18:40:04.369Z,9.30
2019-02-21T18:42:35.919Z,9.30
2019-02-21T18:45:07.116Z,9.40
2019-02-21T18:47:37.085Z,9.50
2019-02-21T18:50:07.103Z,9.70
2019-02-21T18:52:37.147Z,9.60
2019-02-21T18:55:07.287Z,9.30
2019-02-21T18:57:37.099Z,9.40
2019-02-21T19:00:09.009Z,9.50
2019-02-21T19:02:39.012Z,9.50
2019-02-21T19:05:09.213Z,9.40
2019-02-21T19:07:39.367Z,9.50
2019-02-21T19:10:11.339Z,9.40
2019-02-21T19:12:41.038Z,9.20
2019-02-21T19:15:11.018Z,9.40
2019-02-21T19:17:40.734Z,9.40
2019-02-21T19:20:11.408Z,9.30
2019-02-21T19:22:41.125Z,9.50
2019-02-21T19:25:11.859Z,9.30
2019-02-21T19:27:41.988Z,9.20
2019-02-21T19:30:15.992Z,9.50
2019-02-21T19:32:46.208Z,9.10
2019-02-21T19:35:16.862Z,9.10
2019-02-21T19:37:46.930Z,9.10
2019-02-21T19:40:23.184Z,9.30
2019-02-21T19:42:53.013Z,9.50
2019-02-21T19:45:26.280Z,9.20
2019-02-21T19:47:56.099Z,9.40
2019-02-21T19:50:26.629Z,9.30
2019-02-21T19:52:56.518Z,9.30
2019-02-21T19:55:26.192Z,9.30
2019-02-21T19:57:55.818Z,9.20
2019-02-21T20:00:27.668Z,9.40
2019-02-21T20:02:57.695Z,9.30
2019-02-21T20:05:27.816Z,9.10
2019-02-21T20:08:07.803Z,9.30
2019-02-21T20:10:29.362Z,9.10
2019-02-21T20:13:01.324Z,9.30
2019-02-21T20:15:31.348Z,9.50
2019-02-21T20:18:01.316Z,9.50
2019-02-21T20:20:31.250Z,9.30
2019-02-21T20:23:01.710Z,9.30
2019-02-21T20:25:31.545Z,9.20
2019-02-21T20:28:01.481Z,9.20
2019-02-21T20:30:31.477Z,9.10
2019-02-21T20:33:01.361Z,9.20
2019-02-21T20:35:31.915Z,9.30
2019-02-21T20:38:01.794Z,9.20
2019-02-21T20:40:31.984Z,9.20
2019-02-21T20:43:02.721Z,9.10
2019-02-21T20:45:32.497Z,9.00
2019-02-21T20:48:02.334Z,9.10
2019-02-21T20:50:32.295Z,9.30
2019-02-21T20:53:02.962Z,9.10
2019-02-21T20:55:42.784Z,8.90
2019-02-21T20:58:04.368Z,9.00
2019-02-21T21:00:35.034Z,9.20
2019-02-21T21:03:04.979Z,9.30
2019-02-21T21:05:35.163Z,9.20
2019-02-21T21:08:05.797Z,9.30
2019-02-21T21:10:35.771Z,9.10
2019-02-21T21:13:06.799Z,9.20
2019-02-21T21:15:37.311Z,9.00
2019-02-21T21:18:07.813Z,9.10
2019-02-21T21:20:37.734Z,9.10
2019-02-21T21:23:07.800Z,9.20
2019-02-21T21:25:37.733Z,9.20
2019-02-21T21:28:07.808Z,9.00
2019-02-21T21:30:37.916Z,9.00
2019-02-21T21:33:08.451Z,8.80
2019-02-21T21:35:38.360Z,9.00
2019-02-21T21:38:08.500Z,9.10
2019-02-21T21:40:38.352Z,9.10
2019-02-21T21:43:08.190Z,9.20
2019-02-21T21:45:38.386Z,8.90
2019-02-21T21:48:08.368Z,8.80
2019-02-21T21:50:45.281Z,8.90
2019-02-21T21:53:15.171Z,8.90
2019-02-21T21:55:45.446Z,9.00
2019-02-21T21:58:15.442Z,8.90
2019-02-21T22:00:45.476Z,9.00
2019-02-21T22:03:15.575Z,8.80
2019-02-21T22:05:45.329Z,8.70
2019-02-21T22:08:15.583Z,9.00
2019-02-21T22:10:45.466Z,8.90
2019-02-21T22:13:15.331Z,8.80
2019-02-21T22:15:45.189Z,8.80
2019-02-21T22:18:15.156Z,8.70
2019-02-21T22:20:45.556Z,8.80
2019-02-21T22:23:15.640Z,8.90
2019-02-21T22:25:45.718Z,9.00
2019-02-21T22:28:15.943Z,9.00
2019-02-21T22:30:45.814Z,8.90
2019-02-21T22:33:15.644Z,8.80
2019-02-21T22:35:45.525Z,8.70
2019-02-21T22:38:16.005Z,8.70
2019-02-21T22:40:45.927Z,8.80
2019-02-21T22:43:16.134Z,8.80
2019-02-21T22:45:47.265Z,8.80
2019-02-21T22:48:17.945Z,8.90
2019-02-21T22:50:48.051Z,8.80
2019-02-21T22:53:17.871Z,8.80
2019-02-21T22:55:47.620Z,8.70
2019-02-21T22:58:17.461Z,8.60
2019-02-21T23:01:31.625Z,8.60
2019-02-21T23:04:51.512Z,8.70
2019-02-21T23:07:38.320Z,8.90
2019-02-21T23:10:08.773Z,8.90
2019-02-21T23:12:38.731Z,8.80
2019-02-21T23:15:09.174Z,8.80
2019-02-21T23:17:39.139Z,8.80
2019-02-21T23:20:09.699Z,8.80
2019-02-21T23:22:39.486Z,8.70
2019-02-21T23:25:09.954Z,8.80
2019-02-21T23:27:40.290Z,8.70
2019-02-21T23:30:13.785Z,8.70
2019-02-21T23:32:43.920Z,8.90
2019-02-21T23:35:20.273Z,9.00
2019-02-21T23:37:50.388Z,8.80
2019-02-21T23:40:20.586Z,8.80
2019-02-21T23:42:52.008Z,8.60
2019-02-21T23:45:22.318Z,8.50
2019-02-21T23:47:52.290Z,8.50
2019-02-21T23:50:22.151Z,8.40
2019-02-21T23:52:52.172Z,8.50
2019-02-21T23:55:22.021Z,8.60
2019-02-21T23:57:52.457Z,8.60
